createdAt,value
2023-04-18T00:01:44.757Z,12.93
2023-04-18T00:04:12.422Z,12.77
2023-04-18T00:06:39.435Z,13.20
2023-04-18T00:09:07.436Z,13.80
2023-04-18T00:11:34.174Z,13.52
2023-04-18T00:14:00.790Z,12.63
2023-04-18T00:16:27.614Z,13.10
2023-04-18T00:18:54.306Z,12.63
2023-04-18T00:21:20.935Z,13.43
2023-04-18T00:23:47.571Z,12.02
2023-04-18T00:26:15.597Z,12.50
2023-04-18T00:28:42.185Z,12.30
2023-04-18T00:31:08.803Z,11.75
2023-04-18T00:33:35.507Z,12.25
2023-04-18T00:36:02.315Z,13.15
2023-04-18T00:38:28.927Z,12.90
2023-04-18T00:40:55.597Z,12.02
2023-04-18T00:43:24.175Z,12.30
2023-04-18T00:45:50.916Z,12.07
2023-04-18T00:48:18.103Z,11.82
2023-04-18T00:50:45.376Z,12.73
2023-04-18T00:53:12.021Z,12.57
2023-04-18T00:55:38.882Z,12.25
2023-04-18T00:58:05.574Z,12.45
2023-04-18T01:00:34.046Z,11.70
2023-04-18T01:03:00.785Z,12.07
2023-04-18T01:05:27.792Z,12.30
2023-04-18T01:07:55.016Z,12.35
2023-04-18T01:10:21.870Z,12.65
2023-04-18T01:12:48.472Z,13.00
2023-04-18T01:15:15.142Z,12.95
2023-04-18T01:17:43.194Z,13.13
2023-04-18T01:20:10.756Z,14.07
2023-04-18T01:22:37.293Z,13.07
2023-04-18T01:25:10.238Z,12.85
2023-04-18T01:27:36.834Z,13.27
2023-04-18T01:30:03.842Z,13.38
2023-04-18T01:32:30.589Z,13.32
2023-04-18T01:34:57.136Z,12.52
2023-04-18T01:37:23.748Z,13.60
2023-04-18T01:39:50.498Z,12.80
2023-04-18T01:42:18.504Z,12.52
2023-04-18T01:44:45.078Z,12.95
2023-04-18T01:47:11.647Z,12.35
2023-04-18T01:49:38.246Z,12.52
2023-04-18T01:52:04.844Z,12.50
2023-04-18T01:54:31.420Z,12.68
2023-04-18T01:56:57.953Z,12.40
2023-04-18T01:59:25.910Z,13.52
2023-04-18T02:01:52.748Z,11.25
2023-04-18T02:04:19.418Z,12.98
2023-04-18T02:06:45.984Z,11.98
2023-04-18T02:09:12.649Z,12.70
2023-04-18T02:11:39.343Z,12.13
2023-04-18T02:14:05.938Z,12.73
2023-04-18T02:16:34.005Z,12.55
2023-04-18T02:19:00.748Z,12.75
2023-04-18T02:21:27.477Z,12.85
2023-04-18T02:23:54.108Z,12.65
2023-04-18T02:26:20.704Z,12.48
2023-04-18T02:28:47.403Z,12.85
2023-04-18T02:31:15.746Z,13.80
2023-04-18T02:33:45.509Z,13.32
2023-04-18T02:36:12.421Z,13.13
2023-04-18T02:38:39.079Z,14.13
2023-04-18T02:41:05.719Z,12.85
2023-04-18T02:43:33.570Z,12.15
2023-04-18T02:46:00.276Z,13.25
2023-04-18T02:48:27.005Z,13.10
2023-04-18T02:51:02.003Z,12.70
2023-04-18T02:53:28.678Z,11.43
2023-04-18T02:55:55.283Z,12.75
2023-04-18T02:58:21.872Z,12.43
2023-04-18T03:00:48.532Z,12.63
2023-04-18T03:03:15.232Z,12.55
2023-04-18T03:05:42.335Z,11.95
2023-04-18T03:08:10.340Z,12.50
2023-04-18T03:10:37.214Z,11.88
2023-04-18T03:13:03.896Z,11.95
2023-04-18T03:15:30.511Z,12.25
2023-04-18T03:17:57.367Z,11.63
2023-04-18T03:20:24.135Z,11.73
2023-04-18T03:22:50.849Z,11.55
2023-04-18T03:25:18.999Z,12.27
2023-04-18T03:27:45.715Z,12.70
2023-04-18T03:30:12.467Z,13.13
2023-04-18T03:32:39.068Z,12.05
2023-04-18T03:35:06.060Z,11.88
2023-04-18T03:37:32.630Z,12.52
2023-04-18T03:39:59.212Z,12.70
2023-04-18T03:42:27.271Z,12.80
2023-04-18T03:44:53.897Z,13.05
2023-04-18T03:47:20.468Z,12.45
2023-04-18T03:49:47.088Z,13.30
2023-04-18T03:52:13.688Z,12.68
2023-04-18T03:54:40.284Z,12.88
2023-04-18T03:57:06.872Z,12.88
2023-04-18T03:59:34.808Z,12.52
2023-04-18T04:02:01.557Z,13.80
2023-04-18T04:04:28.368Z,13.05
2023-04-18T04:06:55.085Z,12.95
2023-04-18T04:09:21.686Z,12.63
2023-04-18T04:11:48.348Z,14.25
2023-04-18T04:14:15.147Z,12.52
2023-04-18T04:16:43.400Z,13.18
2023-04-18T04:19:10.180Z,14.23
2023-04-18T04:21:36.768Z,13.82
2023-04-18T04:24:03.404Z,12.48
2023-04-18T04:26:30.107Z,12.90
2023-04-18T04:28:56.684Z,13.15
2023-04-18T04:31:23.504Z,13.75
2023-04-18T04:33:51.517Z,13.73
2023-04-18T04:36:18.978Z,12.93
2023-04-18T04:38:45.749Z,13.75
2023-04-18T04:41:12.521Z,13.52
2023-04-18T04:43:39.168Z,14.20
2023-04-18T04:46:05.841Z,14.23
2023-04-18T04:48:32.485Z,14.30
2023-04-18T04:51:01.221Z,14.63
2023-04-18T04:53:29.078Z,15.02
2023-04-18T04:55:55.763Z,14.13
2023-04-18T04:58:22.374Z,14.30
2023-04-18T05:00:48.982Z,14.18
2023-04-18T05:03:15.686Z,14.73
2023-04-18T05:05:42.731Z,14.45
2023-04-18T05:08:10.688Z,13.85
2023-04-18T05:10:37.408Z,15.13
2023-04-18T05:13:04.363Z,15.32
2023-04-18T05:15:31.120Z,14.30
2023-04-18T05:17:57.852Z,14.90
2023-04-18T05:20:24.729Z,14.93
2023-04-18T05:22:51.331Z,13.50
2023-04-18T05:25:19.657Z,13.20
2023-04-18T05:27:46.258Z,13.45
2023-04-18T05:30:13.214Z,13.25
2023-04-18T05:32:39.894Z,12.18
2023-04-18T05:35:07.441Z,12.60
2023-04-18T05:37:34.278Z,13.32
2023-04-18T05:40:01.296Z,12.40
2023-04-18T05:42:29.291Z,12.77
2023-04-18T05:44:56.026Z,13.73
2023-04-18T05:47:22.614Z,12.38
2023-04-18T05:49:49.490Z,13.45
2023-04-18T05:52:16.128Z,13.00
2023-04-18T05:54:42.955Z,11.95
2023-04-18T05:57:09.596Z,13.27
2023-04-18T05:59:37.686Z,12.05
2023-04-18T06:02:04.346Z,11.80
2023-04-18T06:04:31.126Z,12.20
2023-04-18T06:06:58.020Z,11.98
2023-04-18T06:09:24.584Z,12.30
2023-04-18T06:11:51.176Z,11.20
2023-04-18T06:14:17.848Z,11.65
2023-04-18T06:16:45.999Z,11.80
2023-04-18T06:19:12.563Z,11.23
2023-04-18T06:21:39.142Z,12.32
2023-04-18T06:24:06.686Z,12.35
2023-04-18T06:26:33.339Z,11.20
2023-04-18T06:28:59.978Z,10.63
2023-04-18T06:31:26.890Z,11.60
2023-04-18T06:33:54.961Z,11.70
2023-04-18T06:36:21.832Z,10.40
2023-04-18T06:38:48.913Z,11.00
2023-04-18T06:41:15.693Z,10.32
2023-04-18T06:43:52.068Z,9.77
2023-04-18T06:46:28.738Z,11.00
2023-04-18T06:48:56.855Z,10.05
2023-04-18T06:51:23.499Z,10.27
2023-04-18T06:53:50.140Z,10.07
2023-04-18T06:56:16.755Z,10.13
2023-04-18T06:58:43.650Z,11.00
2023-04-18T07:01:10.375Z,10.27
2023-04-18T07:03:37.088Z,9.57
2023-04-18T07:06:05.814Z,10.13
2023-04-18T07:08:32.409Z,9.75
2023-04-18T07:10:59.058Z,10.15
2023-04-18T07:13:25.675Z,9.32
2023-04-18T07:15:52.653Z,10.23
2023-04-18T07:18:30.177Z,9.77
2023-04-18T07:21:05.226Z,11.00
2023-04-18T07:23:31.913Z,10.07
2023-04-18T07:25:58.863Z,10.60
2023-04-18T07:28:25.577Z,9.20
2023-04-18T07:30:52.569Z,9.55
2023-04-18T07:33:19.523Z,9.75
2023-04-18T07:35:46.196Z,9.15
2023-04-18T07:38:14.321Z,9.25
2023-04-18T07:40:40.947Z,9.35
2023-04-18T07:43:07.838Z,9.57
2023-04-18T07:45:34.502Z,8.75
2023-04-18T07:48:01.314Z,9.45
2023-04-18T07:50:28.162Z,9.10
2023-04-18T07:52:54.770Z,8.70
2023-04-18T07:55:22.849Z,9.00
2023-04-18T07:57:49.555Z,8.20
2023-04-18T08:00:16.951Z,8.75
2023-04-18T08:02:43.787Z,9.05
2023-04-18T08:05:10.858Z,8.50
2023-04-18T08:07:37.805Z,8.05
2023-04-18T08:10:05.156Z,9.30
2023-04-18T08:12:33.235Z,8.55
2023-04-18T08:15:00.023Z,8.73
2023-04-18T08:17:26.770Z,8.85
2023-04-18T08:19:53.464Z,8.65
2023-04-18T08:22:20.132Z,8.65
2023-04-18T08:25:00.970Z,8.20
2023-04-18T08:27:28.096Z,8.35
2023-04-18T08:29:56.219Z,7.97
2023-04-18T08:32:22.912Z,8.85
2023-04-18T08:34:49.644Z,8.35
2023-04-18T08:37:16.380Z,8.20
2023-04-18T08:39:43.105Z,7.75
2023-04-18T08:42:10.486Z,8.95
2023-04-18T08:44:37.722Z,8.88
2023-04-18T08:47:08.217Z,8.20
2023-04-18T08:49:34.959Z,8.38
2023-04-18T08:52:05.566Z,9.20
2023-04-18T08:54:32.393Z,8.32
2023-04-18T08:57:06.007Z,8.77
2023-04-18T08:59:32.695Z,9.00
2023-04-18T09:01:59.467Z,8.43
2023-04-18T09:04:35.466Z,8.00
2023-04-18T09:07:03.145Z,8.43
2023-04-18T09:09:41.026Z,8.60
2023-04-18T09:12:08.892Z,8.57
2023-04-18T09:14:35.994Z,9.35
2023-04-18T09:17:04.063Z,8.88
2023-04-18T09:19:30.996Z,8.98
2023-04-18T09:22:00.508Z,9.00
2023-04-18T09:24:27.564Z,8.93
2023-04-18T09:26:55.745Z,8.85
2023-04-18T09:29:23.320Z,8.90
2023-04-18T09:31:58.246Z,8.75
2023-04-18T09:34:28.767Z,8.23
2023-04-18T09:37:10.718Z,8.35
2023-04-18T09:39:38.672Z,9.88
2023-04-18T09:42:05.998Z,8.80
2023-04-18T09:44:32.785Z,8.77
2023-04-18T09:46:59.592Z,8.70
2023-04-18T09:49:26.823Z,8.50
2023-04-18T09:51:55.126Z,8.70
2023-04-18T09:54:24.754Z,8.98
2023-04-18T09:56:52.494Z,8.75
2023-04-18T09:59:36.952Z,8.23
2023-04-18T10:02:08.497Z,8.20
2023-04-18T10:04:36.033Z,9.57
2023-04-18T10:07:03.346Z,8.23
2023-04-18T10:09:34.471Z,9.00
2023-04-18T10:12:01.198Z,9.00
2023-04-18T10:14:30.609Z,8.63
2023-04-18T10:16:59.245Z,8.65
2023-04-18T10:19:27.160Z,8.15
2023-04-18T10:21:54.808Z,8.75
2023-04-18T10:24:48.696Z,9.13
2023-04-18T10:27:16.093Z,8.45
2023-04-18T10:29:51.145Z,8.82
2023-04-18T10:32:19.362Z,9.60
2023-04-18T10:34:47.168Z,9.13
2023-04-18T10:37:15.930Z,9.25
2023-04-18T10:39:55.785Z,9.35
2023-04-18T10:43:00.519Z,9.73
2023-04-18T10:45:28.031Z,9.27
2023-04-18T10:48:22.263Z,10.13
2023-04-18T10:51:14.947Z,9.98
2023-04-18T10:53:48.376Z,9.48
2023-04-18T10:56:16.512Z,9.75
2023-04-18T10:58:49.251Z,9.43
2023-04-18T11:01:24.086Z,9.63
2023-04-18T11:03:51.711Z,9.25
2023-04-18T11:06:18.561Z,9.20
2023-04-18T11:08:45.557Z,8.00
2023-04-18T11:11:13.443Z,9.50
2023-04-18T11:13:55.750Z,8.55
2023-04-18T11:16:26.757Z,7.70
2023-04-18T11:18:53.467Z,7.80
2023-04-18T11:21:20.170Z,8.48
2023-04-18T11:23:47.442Z,8.35
2023-04-18T11:26:14.334Z,8.43
2023-04-18T11:28:41.776Z,8.73
2023-04-18T11:31:09.840Z,9.07
2023-04-18T11:33:36.435Z,8.88
2023-04-18T11:36:03.378Z,8.75
2023-04-18T11:38:30.565Z,8.55
2023-04-18T11:40:57.307Z,9.18
2023-04-18T11:43:25.198Z,8.32
2023-04-18T11:45:53.259Z,8.15
2023-04-18T11:48:21.635Z,8.13
2023-04-18T11:50:48.406Z,8.27
2023-04-18T11:53:15.086Z,7.95
2023-04-18T11:55:41.809Z,8.48
2023-04-18T11:58:08.491Z,8.10
2023-04-18T12:00:36.443Z,8.68
2023-04-18T12:03:04.522Z,9.15
2023-04-18T12:05:34.968Z,8.40
2023-04-18T12:08:09.758Z,8.77
2023-04-18T12:10:36.778Z,7.93
2023-04-18T12:13:07.170Z,8.93
2023-04-18T12:15:37.200Z,9.43
2023-04-18T12:18:05.614Z,8.98
2023-04-18T12:20:38.116Z,8.45
2023-04-18T12:23:05.631Z,8.77
2023-04-18T12:25:32.688Z,8.30
2023-04-18T12:28:00.682Z,8.60
2023-04-18T12:30:28.640Z,8.57
2023-04-18T12:32:56.558Z,7.65
2023-04-18T12:35:23.839Z,9.23
2023-04-18T12:37:53.640Z,8.77
2023-04-18T12:40:21.211Z,9.10
2023-04-18T12:42:47.945Z,9.23
2023-04-18T12:45:15.867Z,8.63
2023-04-18T12:47:46.300Z,8.27
2023-04-18T12:50:16.568Z,8.57
2023-04-18T12:52:43.281Z,8.93
2023-04-18T12:55:12.352Z,8.60
2023-04-18T12:57:39.158Z,8.32
2023-04-18T13:00:07.082Z,8.52
2023-04-18T13:02:33.808Z,8.52
2023-04-18T13:05:00.775Z,8.70
2023-04-18T13:07:27.604Z,9.48
2023-04-18T13:09:54.209Z,8.20
2023-04-18T13:12:22.267Z,9.07
2023-04-18T13:14:49.093Z,8.30
2023-04-18T13:17:15.764Z,8.88
2023-04-18T13:19:42.563Z,9.38
2023-04-18T13:22:09.223Z,9.80
2023-04-18T13:24:35.972Z,8.93
2023-04-18T13:27:02.622Z,8.60
2023-04-18T13:29:30.625Z,9.32
2023-04-18T13:31:57.294Z,8.63
2023-04-18T13:34:24.063Z,9.50
2023-04-18T13:36:51.277Z,10.00
2023-04-18T13:39:18.463Z,8.95
2023-04-18T13:41:45.117Z,9.73
2023-04-18T13:44:11.790Z,9.25
2023-04-18T13:46:39.888Z,9.13
2023-04-18T13:49:06.527Z,9.52
2023-04-18T13:51:33.630Z,9.25
2023-04-18T13:54:00.339Z,8.88
2023-04-18T13:56:27.329Z,9.63
2023-04-18T13:58:54.307Z,8.98
2023-04-18T14:01:21.833Z,8.95
2023-04-18T14:03:50.166Z,10.07
2023-04-18T14:06:17.048Z,9.10
2023-04-18T14:08:43.615Z,8.02
2023-04-18T14:11:10.281Z,8.65
2023-04-18T14:13:36.959Z,8.40
2023-04-18T14:16:03.857Z,9.10
2023-04-18T14:18:30.531Z,9.07
2023-04-18T14:20:58.565Z,8.95
2023-04-18T14:23:25.435Z,8.35
2023-04-18T14:25:52.199Z,8.45
2023-04-18T14:28:18.907Z,8.20
2023-04-18T14:30:45.724Z,8.95
2023-04-18T14:33:12.740Z,8.63
2023-04-18T14:35:39.432Z,8.63
2023-04-18T14:38:07.433Z,8.02
2023-04-18T14:40:34.166Z,8.50
2023-04-18T14:43:00.855Z,7.60
2023-04-18T14:45:27.566Z,8.02
2023-04-18T14:47:54.696Z,8.07
2023-04-18T14:50:21.516Z,8.00
2023-04-18T14:52:48.142Z,7.53
2023-04-18T14:55:16.218Z,7.97
2023-04-18T14:57:42.787Z,8.82
2023-04-18T15:00:10.190Z,8.15
2023-04-18T15:02:37.237Z,7.63
2023-04-18T15:05:04.493Z,8.15
2023-04-18T15:07:31.184Z,8.25
2023-04-18T15:09:57.901Z,7.85
2023-04-18T15:12:26.234Z,8.70
2023-04-18T15:14:52.816Z,7.78
2023-04-18T15:17:19.692Z,7.15
2023-04-18T15:19:46.444Z,7.32
2023-04-18T15:22:13.287Z,7.85
2023-04-18T15:24:39.872Z,7.78
2023-04-18T15:27:06.486Z,7.57
2023-04-18T15:29:34.461Z,7.43
2023-04-18T15:32:01.137Z,6.50
2023-04-18T15:34:27.782Z,7.32
2023-04-18T15:36:54.486Z,7.00
2023-04-18T15:39:21.060Z,6.05
2023-04-18T15:41:47.684Z,6.25
2023-04-18T15:44:14.608Z,6.20
2023-04-18T15:46:42.883Z,6.95
2023-04-18T15:49:09.478Z,5.85
2023-04-18T15:51:36.177Z,5.70
2023-04-18T15:54:02.920Z,5.32
2023-04-18T15:56:31.217Z,5.30
2023-04-18T15:58:59.910Z,5.88
2023-04-18T16:01:26.754Z,5.30
2023-04-18T16:03:54.886Z,6.43
2023-04-18T16:06:21.579Z,5.85
2023-04-18T16:08:48.237Z,5.53
2023-04-18T16:11:15.115Z,4.28
2023-04-18T16:13:41.703Z,4.97
2023-04-18T16:16:08.595Z,4.00
2023-04-18T16:18:35.219Z,4.38
2023-04-18T16:21:03.531Z,3.70
2023-04-18T16:23:31.160Z,3.85
2023-04-18T16:25:57.814Z,3.88
2023-04-18T16:28:24.474Z,3.40
2023-04-18T16:30:52.074Z,2.97
2023-04-18T16:33:20.197Z,3.38
2023-04-18T16:35:46.972Z,3.08
2023-04-18T16:38:14.998Z,3.20
2023-04-18T16:40:41.634Z,3.30
2023-04-18T16:43:08.338Z,3.33
2023-04-18T16:45:35.019Z,2.90
2023-04-18T16:48:01.755Z,3.35
2023-04-18T16:50:28.328Z,3.30
2023-04-18T16:52:54.958Z,3.38
2023-04-18T16:55:23.216Z,2.92
2023-04-18T16:57:50.264Z,3.15
2023-04-18T17:00:17.299Z,3.45
2023-04-18T17:02:44.101Z,2.97
2023-04-18T17:05:10.760Z,3.20
2023-04-18T17:07:37.322Z,3.67
2023-04-18T17:10:04.419Z,3.97
2023-04-18T17:12:32.402Z,5.20
2023-04-18T17:14:58.994Z,3.55
2023-04-18T17:17:25.664Z,5.00
2023-04-18T17:19:52.285Z,4.13
2023-04-18T17:22:18.948Z,4.15
2023-04-18T17:24:45.517Z,3.75
2023-04-18T17:27:12.112Z,5.07
2023-04-18T17:29:40.155Z,5.88
2023-04-18T17:32:06.846Z,4.53
2023-04-18T17:34:33.578Z,6.63
2023-04-18T17:37:00.229Z,5.43
2023-04-18T17:39:26.796Z,4.43
2023-04-18T17:41:53.378Z,4.32
2023-04-18T17:44:20.142Z,4.35
2023-04-18T17:46:48.944Z,4.32
2023-04-18T17:49:17.083Z,4.93
2023-04-18T17:51:43.645Z,4.53
2023-04-18T17:54:10.267Z,4.80
2023-04-18T17:56:36.944Z,4.97
2023-04-18T17:59:03.561Z,5.25
2023-04-18T18:01:30.245Z,4.63
2023-04-18T18:03:58.700Z,4.53
2023-04-18T18:06:25.476Z,4.50
2023-04-18T18:08:52.079Z,5.03
2023-04-18T18:11:18.884Z,4.53
2023-04-18T18:13:45.482Z,4.32
2023-04-18T18:16:12.215Z,4.40
2023-04-18T18:18:38.952Z,3.83
2023-04-18T18:21:06.888Z,5.00
2023-04-18T18:23:33.533Z,4.82
2023-04-18T18:26:00.403Z,4.57
2023-04-18T18:28:27.014Z,4.03
2023-04-18T18:30:53.821Z,4.00
2023-04-18T18:33:20.848Z,3.75
2023-04-18T18:35:47.464Z,3.92
2023-04-18T18:38:15.583Z,4.65
2023-04-18T18:40:42.126Z,4.10
2023-04-18T18:43:08.745Z,4.30
2023-04-18T18:45:35.306Z,3.80
2023-04-18T18:48:01.957Z,4.43
2023-04-18T18:50:28.610Z,4.55
2023-04-18T18:52:55.243Z,3.80
2023-04-18T18:55:23.493Z,4.65
2023-04-18T18:57:50.348Z,4.30
2023-04-18T19:00:17.067Z,4.18
2023-04-18T19:02:43.841Z,4.25
2023-04-18T19:05:10.725Z,5.05
2023-04-18T19:07:37.353Z,4.50
2023-04-18T19:10:05.229Z,4.10
2023-04-18T19:12:33.246Z,3.72
2023-04-18T19:15:00.334Z,4.28
2023-04-18T19:17:27.030Z,4.03
2023-04-18T19:19:53.684Z,4.82
2023-04-18T19:22:20.370Z,4.15
2023-04-18T19:24:47.130Z,4.18
2023-04-18T19:27:13.777Z,4.88
2023-04-18T19:29:41.800Z,4.53
2023-04-18T19:32:08.511Z,4.43
2023-04-18T19:34:35.159Z,4.07
2023-04-18T19:37:01.836Z,4.70
2023-04-18T19:39:29.084Z,4.50
2023-04-18T19:41:55.813Z,4.88
2023-04-18T19:44:22.433Z,4.18
2023-04-18T19:46:50.408Z,4.13
2023-04-18T19:49:17.208Z,4.70
2023-04-18T19:51:43.947Z,4.28
2023-04-18T19:54:10.622Z,4.22
2023-04-18T19:56:37.192Z,5.00
2023-04-18T19:59:03.826Z,4.90
2023-04-18T20:01:30.696Z,5.25
2023-04-18T20:03:58.915Z,4.22
2023-04-18T20:06:25.969Z,4.57
2023-04-18T20:08:52.902Z,4.60
2023-04-18T20:11:19.789Z,4.82
2023-04-18T20:13:46.447Z,5.22
2023-04-18T20:16:13.179Z,4.47
2023-04-18T20:18:41.052Z,4.75
2023-04-18T20:21:09.871Z,5.10
2023-04-18T20:23:37.390Z,4.78
2023-04-18T20:26:04.210Z,5.10
2023-04-18T20:28:30.895Z,5.40
2023-04-18T20:30:58.100Z,5.13
2023-04-18T20:33:24.781Z,4.50
2023-04-18T20:35:51.401Z,4.90
2023-04-18T20:38:19.383Z,4.90
2023-04-18T20:40:45.996Z,5.72
2023-04-18T20:43:12.565Z,4.88
2023-04-18T20:45:39.185Z,5.70
2023-04-18T20:48:06.226Z,5.15
2023-04-18T20:50:32.831Z,5.97
2023-04-18T20:52:59.420Z,5.47
2023-04-18T20:55:27.471Z,6.10
2023-04-18T20:57:54.134Z,5.80
2023-04-18T21:00:20.898Z,5.22
2023-04-18T21:02:47.637Z,5.47
2023-04-18T21:05:14.379Z,6.07
2023-04-18T21:07:41.048Z,5.25
2023-04-18T21:10:08.386Z,5.75
2023-04-18T21:12:36.379Z,5.80
2023-04-18T21:15:03.407Z,6.03
2023-04-18T21:17:30.022Z,5.45
2023-04-18T21:19:56.622Z,5.57
2023-04-18T21:22:23.189Z,6.72
2023-04-18T21:24:49.829Z,5.70
2023-04-18T21:27:16.386Z,5.88
2023-04-18T21:29:44.333Z,6.40
2023-04-18T21:32:10.969Z,6.00
2023-04-18T21:34:37.592Z,5.53
2023-04-18T21:37:04.274Z,5.95
2023-04-18T21:39:30.858Z,6.88
2023-04-18T21:41:57.530Z,6.07
2023-04-18T21:44:24.157Z,6.25
2023-04-18T21:46:52.185Z,5.82
2023-04-18T21:49:18.942Z,6.38
2023-04-18T21:51:45.526Z,5.43
2023-04-18T21:54:12.288Z,6.35
2023-04-18T21:56:39.134Z,5.72
2023-04-18T21:59:05.818Z,6.30
2023-04-18T22:01:32.525Z,6.68
2023-04-18T22:04:00.649Z,5.50
2023-04-18T22:06:29.647Z,6.15
2023-04-18T22:08:56.368Z,5.97
2023-04-18T22:11:22.940Z,5.80
2023-04-18T22:13:49.596Z,5.35
2023-04-18T22:16:16.484Z,5.50
2023-04-18T22:18:43.030Z,6.38
2023-04-18T22:21:11.026Z,5.10
2023-04-18T22:23:37.671Z,5.22
2023-04-18T22:26:04.497Z,4.72
2023-04-18T22:28:31.094Z,4.80
2023-04-18T22:30:58.175Z,4.45
2023-04-18T22:33:25.023Z,5.00
2023-04-18T22:35:52.364Z,5.10
2023-04-18T22:38:20.446Z,4.65
2023-04-18T22:40:47.207Z,4.60
2023-04-18T22:43:13.837Z,4.15
2023-04-18T22:45:40.464Z,3.72
2023-04-18T22:48:07.092Z,5.28
2023-04-18T22:50:33.674Z,3.95
2023-04-18T22:53:00.526Z,3.42
2023-04-18T22:55:28.561Z,3.40
2023-04-18T22:57:55.169Z,3.60
2023-04-18T23:00:21.906Z,3.92
2023-04-18T23:02:48.699Z,4.13
2023-04-18T23:05:15.395Z,3.30
2023-04-18T23:07:42.041Z,3.50
2023-04-18T23:10:09.851Z,4.18
2023-04-18T23:12:37.843Z,3.47
2023-04-18T23:15:05.540Z,3.65
2023-04-18T23:17:32.336Z,4.00
2023-04-18T23:19:59.066Z,3.40
2023-04-18T23:22:25.718Z,3.53
2023-04-18T23:24:52.470Z,3.30
2023-04-18T23:27:19.307Z,3.42
2023-04-18T23:29:47.917Z,3.47
2023-04-18T23:32:14.632Z,3.75
2023-04-18T23:34:41.248Z,3.15
2023-04-18T23:37:08.009Z,3.22
2023-04-18T23:39:34.620Z,3.78
2023-04-18T23:42:01.395Z,3.17
2023-04-18T23:44:28.010Z,3.83
2023-04-18T23:46:56.043Z,3.10
2023-04-18T23:49:22.620Z,3.40
2023-04-18T23:51:49.230Z,2.78
2023-04-18T23:54:16.042Z,3.13
2023-04-18T23:56:42.829Z,3.35
2023-04-18T23:59:09.472Z,3.33
